createdAt,value
2022-08-16T00:00:03.296Z,4.78
2022-08-16T00:02:34.844Z,4.18
2022-08-16T00:05:03.156Z,4.55
2022-08-16T00:07:31.446Z,4.95
2022-08-16T00:10:00.149Z,4.75
2022-08-16T00:12:28.954Z,4.72
2022-08-16T00:14:59.447Z,4.72
2022-08-16T00:17:28.347Z,4.32
2022-08-16T00:19:56.704Z,4.50
2022-08-16T00:22:27.872Z,4.53
2022-08-16T00:24:56.244Z,4.43
2022-08-16T00:27:24.608Z,4.85
2022-08-16T00:30:08.915Z,4.30
2022-08-16T00:32:46.016Z,4.82
2022-08-16T00:35:19.187Z,5.20
2022-08-16T00:37:58.525Z,4.47
2022-08-16T00:40:36.862Z,4.85
2022-08-16T00:43:19.225Z,4.50
2022-08-16T00:45:58.008Z,4.47
2022-08-16T00:48:43.877Z,4.78
2022-08-16T00:51:16.110Z,4.40
2022-08-16T00:53:46.484Z,4.55
2022-08-16T00:56:57.028Z,4.28
2022-08-16T00:59:09.739Z,4.40
2022-08-16T01:01:38.620Z,4.30
2022-08-16T01:04:29.626Z,4.32
2022-08-16T01:07:02.134Z,4.82
2022-08-16T01:09:33.322Z,4.95
2022-08-16T01:12:04.495Z,4.55
2022-08-16T01:14:43.393Z,4.68
2022-08-16T01:17:17.145Z,4.57
2022-08-16T01:19:57.217Z,4.90
2022-08-16T01:22:47.097Z,4.65
2022-08-16T01:25:33.969Z,4.80
2022-08-16T01:28:20.056Z,4.78
2022-08-16T01:31:04.751Z,4.78
2022-08-16T01:33:44.615Z,4.55
2022-08-16T01:36:20.976Z,4.57
2022-08-16T01:39:11.732Z,4.75
2022-08-16T01:42:12.891Z,4.90
2022-08-16T01:44:45.603Z,5.00
2022-08-16T01:47:53.197Z,4.68
2022-08-16T01:50:43.305Z,4.78
2022-08-16T01:53:23.722Z,4.78
2022-08-16T01:55:53.837Z,4.82
2022-08-16T01:58:27.199Z,5.10
2022-08-16T02:00:58.163Z,4.93
2022-08-16T02:03:26.688Z,5.10
2022-08-16T02:05:54.998Z,4.50
2022-08-16T02:08:33.373Z,4.78
2022-08-16T02:11:04.543Z,4.43
2022-08-16T02:13:33.910Z,4.90
2022-08-16T02:16:03.024Z,4.60
2022-08-16T02:18:31.070Z,4.25
2022-08-16T02:21:02.629Z,4.97
2022-08-16T02:23:33.474Z,4.80
2022-08-16T02:26:06.884Z,4.90
2022-08-16T02:28:47.057Z,5.07
2022-08-16T02:31:17.775Z,4.97
2022-08-16T02:33:50.265Z,4.90
2022-08-16T02:36:47.418Z,4.78
2022-08-16T02:39:11.064Z,5.07
2022-08-16T02:41:43.902Z,4.70
2022-08-16T02:44:14.111Z,4.63
2022-08-16T02:46:55.803Z,5.05
2022-08-16T02:50:25.864Z,4.88
2022-08-16T02:52:49.789Z,4.82
2022-08-16T02:55:41.218Z,4.60
2022-08-16T02:58:13.643Z,5.00
2022-08-16T03:00:50.196Z,4.72
2022-08-16T03:03:18.939Z,4.70
2022-08-16T03:05:50.068Z,4.32
2022-08-16T03:08:50.431Z,5.22
2022-08-16T03:11:18.079Z,4.88
2022-08-16T03:13:55.822Z,4.70
2022-08-16T03:16:38.086Z,4.78
2022-08-16T03:19:07.710Z,5.22
2022-08-16T03:21:38.203Z,4.95
2022-08-16T03:24:29.107Z,4.32
2022-08-16T03:26:58.139Z,5.60
2022-08-16T03:29:30.109Z,4.57
2022-08-16T03:32:01.182Z,5.03
2022-08-16T03:34:30.238Z,5.30
2022-08-16T03:36:58.918Z,5.22
2022-08-16T03:39:27.227Z,4.63
2022-08-16T03:42:00.008Z,4.70
2022-08-16T03:44:43.758Z,4.80
2022-08-16T03:47:18.941Z,5.07
2022-08-16T03:49:51.835Z,4.88
2022-08-16T03:52:20.611Z,4.70
2022-08-16T03:54:57.536Z,5.03
2022-08-16T03:57:31.984Z,5.10
2022-08-16T04:00:20.786Z,5.13
2022-08-16T04:03:07.165Z,4.70
2022-08-16T04:05:37.700Z,5.10
2022-08-16T04:08:23.831Z,4.82
2022-08-16T04:10:54.919Z,5.00
2022-08-16T04:14:01.461Z,4.80
2022-08-16T04:16:26.509Z,4.97
2022-08-16T04:19:02.807Z,5.25
2022-08-16T04:21:33.416Z,5.10
2022-08-16T04:24:03.753Z,4.97
2022-08-16T04:26:36.314Z,5.13
2022-08-16T04:29:21.158Z,5.47
2022-08-16T04:31:56.341Z,5.30
2022-08-16T04:34:29.220Z,5.38
2022-08-16T04:37:01.482Z,5.18
2022-08-16T04:39:45.759Z,5.40
2022-08-16T04:42:16.626Z,5.20
2022-08-16T04:44:53.791Z,5.10
2022-08-16T04:47:25.227Z,5.15
2022-08-16T04:50:01.276Z,5.20
2022-08-16T04:52:35.204Z,5.00
2022-08-16T04:55:07.901Z,5.40
2022-08-16T05:00:32.470Z,5.30
2022-08-16T05:03:01.254Z,6.25
2022-08-16T05:05:33.024Z,8.98
2022-08-16T05:08:29.059Z,9.90
2022-08-16T05:10:58.808Z,9.52
2022-08-16T05:13:40.768Z,10.25
2022-08-16T05:16:19.986Z,11.52
2022-08-16T05:18:50.642Z,12.00
2022-08-16T05:21:21.454Z,12.50
2022-08-16T05:23:55.494Z,13.77
2022-08-16T05:26:28.085Z,12.88
2022-08-16T05:28:56.913Z,12.70
2022-08-16T05:31:29.918Z,12.98
2022-08-16T05:33:59.675Z,14.48
2022-08-16T05:36:33.757Z,12.85
2022-08-16T05:39:03.942Z,14.18
2022-08-16T05:41:31.889Z,14.43
2022-08-16T05:44:05.369Z,15.05
2022-08-16T05:46:33.817Z,14.57
2022-08-16T05:49:05.849Z,14.23
2022-08-16T05:51:41.531Z,15.02
2022-08-16T05:54:11.389Z,13.43
2022-08-16T05:56:42.957Z,13.70
2022-08-16T05:59:11.736Z,14.00
2022-08-16T06:01:41.063Z,14.50
2022-08-16T06:04:13.768Z,15.32
2022-08-16T06:07:00.876Z,14.00
2022-08-16T06:09:43.216Z,12.48
2022-08-16T06:12:27.095Z,13.27
2022-08-16T06:14:59.874Z,12.45
2022-08-16T06:17:42.737Z,10.33
2022-08-16T06:20:23.251Z,8.82
2022-08-16T06:23:02.835Z,8.65
2022-08-16T06:25:36.597Z,8.00
2022-08-16T06:28:10.284Z,8.10
2022-08-16T06:30:45.503Z,7.45
2022-08-16T06:33:22.367Z,7.68
2022-08-16T06:35:54.643Z,7.30
2022-08-16T06:38:32.546Z,7.15
2022-08-16T06:41:04.821Z,7.50
2022-08-16T06:43:35.381Z,7.63
2022-08-16T06:46:06.117Z,7.35
2022-08-16T06:48:42.892Z,7.28
2022-08-16T06:51:11.622Z,7.75
2022-08-16T06:53:44.403Z,7.38
2022-08-16T06:56:14.536Z,7.07
2022-08-16T06:58:52.060Z,7.25
2022-08-16T07:01:34.403Z,7.28
2022-08-16T07:04:11.823Z,6.97
2022-08-16T07:09:15.969Z,7.07
2022-08-16T07:11:45.765Z,7.00
2022-08-16T07:14:23.734Z,7.32
2022-08-16T07:16:58.217Z,7.05
2022-08-16T07:20:04.151Z,7.18
2022-08-16T07:22:37.459Z,6.38
2022-08-16T07:25:06.226Z,6.47
2022-08-16T07:27:37.529Z,6.80
2022-08-16T07:30:38.015Z,7.13
2022-08-16T07:32:56.982Z,7.60
2022-08-16T07:35:25.357Z,7.38
2022-08-16T07:37:53.335Z,7.13
2022-08-16T07:40:49.038Z,6.97
2022-08-16T07:43:11.740Z,7.35
2022-08-16T07:45:43.039Z,6.82
2022-08-16T07:48:12.670Z,6.88
2022-08-16T07:50:55.503Z,6.60
2022-08-16T07:53:29.133Z,6.95
2022-08-16T07:56:00.517Z,6.90
2022-08-16T07:58:34.070Z,6.68
2022-08-16T08:01:10.397Z,7.60
2022-08-16T08:03:47.633Z,7.05
2022-08-16T08:06:16.949Z,6.85
2022-08-16T08:08:50.643Z,7.43
2022-08-16T08:11:23.847Z,6.72
2022-08-16T08:13:53.722Z,7.13
2022-08-16T08:16:30.943Z,6.55
2022-08-16T08:19:02.911Z,6.32
2022-08-16T08:24:20.415Z,7.25
2022-08-16T08:26:50.045Z,6.90
2022-08-16T08:29:23.064Z,6.82
2022-08-16T08:31:53.684Z,7.13
2022-08-16T08:34:23.123Z,6.78
2022-08-16T08:36:54.284Z,6.70
2022-08-16T08:39:23.116Z,6.38
2022-08-16T08:41:53.405Z,6.88
2022-08-16T08:44:28.950Z,6.80
2022-08-16T08:47:01.746Z,6.78
2022-08-16T08:49:50.464Z,6.63
2022-08-16T08:52:34.685Z,6.60
2022-08-16T08:55:09.329Z,7.28
2022-08-16T08:57:42.059Z,6.70
2022-08-16T09:00:13.685Z,6.82
2022-08-16T09:02:42.807Z,6.18
2022-08-16T09:05:15.466Z,6.93
2022-08-16T09:07:54.746Z,6.75
2022-08-16T09:10:29.798Z,7.03
2022-08-16T09:12:59.315Z,6.55
2022-08-16T09:15:32.899Z,6.45
2022-08-16T09:18:25.373Z,7.35
2022-08-16T09:20:59.719Z,6.85
2022-08-16T09:23:36.165Z,6.35
2022-08-16T09:26:45.907Z,6.28
2022-08-16T09:29:14.985Z,6.57
2022-08-16T09:31:43.563Z,6.35
2022-08-16T09:34:17.188Z,5.95
2022-08-16T09:36:47.120Z,6.30
2022-08-16T09:39:16.092Z,6.50
2022-08-16T09:41:53.209Z,6.30
2022-08-16T09:45:13.092Z,6.28
2022-08-16T09:47:13.034Z,6.35
2022-08-16T09:49:41.396Z,6.25
2022-08-16T09:52:10.934Z,6.65
2022-08-16T09:54:44.492Z,6.55
2022-08-16T09:57:13.785Z,6.25
2022-08-16T09:59:45.686Z,6.60
2022-08-16T10:02:26.276Z,6.50
2022-08-16T10:04:55.806Z,6.57
2022-08-16T10:07:24.627Z,6.50
2022-08-16T10:09:56.190Z,6.68
2022-08-16T10:12:44.092Z,6.23
2022-08-16T10:15:17.728Z,6.03
2022-08-16T10:18:00.780Z,6.40
2022-08-16T10:20:34.779Z,6.10
2022-08-16T10:23:07.184Z,6.32
2022-08-16T10:27:00.535Z,6.13
2022-08-16T10:28:28.688Z,6.03
2022-08-16T10:31:00.490Z,6.40
2022-08-16T10:33:33.471Z,5.85
2022-08-16T10:36:04.953Z,6.10
2022-08-16T10:38:37.076Z,6.07
2022-08-16T10:41:07.066Z,5.82
2022-08-16T10:43:35.868Z,5.90
2022-08-16T10:46:39.107Z,6.07
2022-08-16T10:48:56.011Z,6.30
2022-08-16T10:51:33.533Z,6.30
2022-08-16T10:54:02.710Z,6.22
2022-08-16T10:56:52.452Z,6.53
2022-08-16T10:59:32.869Z,6.18
2022-08-16T11:02:58.872Z,6.22
2022-08-16T11:05:12.571Z,6.22
2022-08-16T11:07:45.580Z,6.10
2022-08-16T11:13:57.454Z,6.22
2022-08-16T11:16:25.696Z,6.40
2022-08-16T11:19:05.498Z,6.28
2022-08-16T11:22:39.338Z,5.75
2022-08-16T11:24:42.544Z,6.30
2022-08-16T11:27:20.388Z,6.43
2022-08-16T11:29:53.058Z,5.95
2022-08-16T11:32:29.974Z,6.60
2022-08-16T11:35:14.420Z,6.32
2022-08-16T11:40:44.219Z,5.95
2022-08-16T11:43:13.157Z,6.75
2022-08-16T11:45:50.689Z,6.30
2022-08-16T11:48:23.244Z,6.47
2022-08-16T11:50:52.710Z,6.03
2022-08-16T11:53:22.042Z,6.80
2022-08-16T11:55:55.053Z,6.70
2022-08-16T11:58:24.652Z,6.60
2022-08-16T12:00:55.102Z,6.90
2022-08-16T12:03:34.312Z,6.75
2022-08-16T12:06:10.701Z,7.30
2022-08-16T12:08:40.306Z,6.90
2022-08-16T12:11:10.147Z,6.45
2022-08-16T12:13:38.737Z,6.78
2022-08-16T12:16:09.174Z,7.00
2022-08-16T12:18:38.957Z,6.10
2022-08-16T12:21:09.787Z,6.82
2022-08-16T12:23:38.432Z,6.32
2022-08-16T12:26:10.436Z,6.32
2022-08-16T12:28:54.176Z,6.57
2022-08-16T12:31:23.284Z,6.70
2022-08-16T12:33:54.346Z,6.82
2022-08-16T12:36:30.131Z,6.40
2022-08-16T12:38:59.158Z,6.55
2022-08-16T12:41:27.115Z,6.68
2022-08-16T12:43:57.075Z,6.78
2022-08-16T12:46:30.912Z,6.60
2022-08-16T12:48:59.573Z,6.90
2022-08-16T12:51:58.634Z,6.13
2022-08-16T12:54:21.565Z,6.43
2022-08-16T12:56:50.508Z,5.80
2022-08-16T12:59:20.836Z,6.85
2022-08-16T13:01:58.034Z,6.22
2022-08-16T13:04:33.181Z,6.72
2022-08-16T13:07:04.553Z,6.38
2022-08-16T13:09:42.888Z,7.00
2022-08-16T13:12:19.872Z,6.53
2022-08-16T13:14:49.840Z,6.80
2022-08-16T13:17:21.338Z,6.50
2022-08-16T13:20:08.280Z,6.77
2022-08-16T13:25:21.019Z,6.82
2022-08-16T13:28:02.881Z,7.28
2022-08-16T13:30:42.456Z,6.65
2022-08-16T13:35:43.971Z,6.55
2022-08-16T13:38:24.451Z,7.05
2022-08-16T13:40:53.143Z,7.20
2022-08-16T13:43:24.384Z,7.40
2022-08-16T13:45:55.467Z,6.97
2022-08-16T13:48:25.232Z,6.53
2022-08-16T13:50:54.668Z,7.28
2022-08-16T13:53:24.769Z,7.20
2022-08-16T13:55:57.826Z,7.15
2022-08-16T13:58:36.246Z,7.22
2022-08-16T14:01:17.108Z,6.90
2022-08-16T14:03:46.055Z,6.40
2022-08-16T14:06:18.585Z,7.30
2022-08-16T14:08:59.266Z,7.03
2022-08-16T14:11:35.328Z,6.68
2022-08-16T14:14:05.674Z,6.90
2022-08-16T14:16:35.151Z,7.10
2022-08-16T14:19:03.678Z,7.38
2022-08-16T14:21:35.242Z,7.53
2022-08-16T14:24:08.084Z,6.90
2022-08-16T14:26:51.216Z,7.45
2022-08-16T14:29:21.333Z,7.68
2022-08-16T14:31:54.005Z,7.28
2022-08-16T14:34:25.563Z,7.50
2022-08-16T14:36:54.137Z,7.18
2022-08-16T14:39:23.523Z,7.20
2022-08-16T14:41:53.804Z,7.50
2022-08-16T14:44:26.251Z,7.60
2022-08-16T14:46:56.125Z,7.20
2022-08-16T14:49:24.758Z,7.60
2022-08-16T14:51:53.157Z,7.50
2022-08-16T14:54:22.409Z,7.45
2022-08-16T14:56:58.539Z,7.55
2022-08-16T14:59:27.369Z,7.57
2022-08-16T15:02:00.743Z,7.22
2022-08-16T15:04:33.307Z,7.35
2022-08-16T15:07:11.239Z,7.47
2022-08-16T15:09:43.779Z,7.22
2022-08-16T15:12:26.310Z,7.03
2022-08-16T15:14:59.343Z,6.72
2022-08-16T15:17:33.997Z,6.50
2022-08-16T15:20:08.725Z,6.35
2022-08-16T15:22:38.903Z,6.63
2022-08-16T15:25:09.705Z,6.85
2022-08-16T15:27:42.168Z,7.95
2022-08-16T15:30:56.838Z,7.53
2022-08-16T15:33:03.083Z,9.15
2022-08-16T15:35:33.464Z,12.45
2022-08-16T15:38:09.283Z,11.27
2022-08-16T15:40:54.913Z,9.88
2022-08-16T15:43:39.066Z,9.10
2022-08-16T15:46:35.057Z,7.68
2022-08-16T15:49:10.320Z,8.13
2022-08-16T15:51:41.231Z,7.30
2022-08-16T15:54:29.792Z,8.27
2022-08-16T15:57:03.030Z,7.72
2022-08-16T15:59:49.125Z,8.00
2022-08-16T16:02:29.150Z,7.82
2022-08-16T16:05:00.915Z,8.32
2022-08-16T16:07:32.036Z,8.77
2022-08-16T16:10:03.078Z,8.18
2022-08-16T16:12:51.202Z,8.43
2022-08-16T16:15:23.117Z,7.90
2022-08-16T16:17:53.242Z,8.23
2022-08-16T16:20:24.351Z,7.88
2022-08-16T16:22:57.035Z,8.27
2022-08-16T16:25:26.099Z,7.60
2022-08-16T16:27:55.418Z,7.97
2022-08-16T16:30:37.456Z,7.95
2022-08-16T16:33:15.537Z,8.27
2022-08-16T16:35:55.296Z,8.07
2022-08-16T16:38:25.338Z,7.43
2022-08-16T16:40:55.494Z,8.50
2022-08-16T16:43:25.386Z,7.07
2022-08-16T16:45:55.778Z,7.40
2022-08-16T16:48:34.625Z,7.90
2022-08-16T16:51:09.200Z,7.10
2022-08-16T16:53:39.420Z,7.75
2022-08-16T16:56:19.686Z,8.05
2022-08-16T16:59:01.235Z,7.85
2022-08-16T17:01:59.145Z,6.97
2022-08-16T17:04:32.551Z,7.40
2022-08-16T17:07:02.078Z,6.75
2022-08-16T17:09:30.343Z,7.03
2022-08-16T17:11:59.376Z,6.90
2022-08-16T17:14:32.885Z,7.10
2022-08-16T17:17:06.666Z,7.00
2022-08-16T17:19:40.272Z,7.22
2022-08-16T17:22:14.264Z,6.75
2022-08-16T17:24:50.982Z,7.38
2022-08-16T17:27:33.287Z,6.95
2022-08-16T17:30:15.062Z,7.15
2022-08-16T17:32:54.303Z,7.10
2022-08-16T17:35:34.113Z,6.88
2022-08-16T17:38:05.899Z,6.82
2022-08-16T17:40:46.796Z,7.13
2022-08-16T17:43:27.856Z,6.47
2022-08-16T17:45:56.295Z,7.13
2022-08-16T17:48:27.065Z,7.38
2022-08-16T17:50:55.216Z,6.78
2022-08-16T17:53:23.960Z,7.10
2022-08-16T17:55:54.464Z,7.07
2022-08-16T17:58:24.254Z,6.57
2022-08-16T18:00:56.095Z,6.63
2022-08-16T18:03:40.853Z,6.65
2022-08-16T18:06:18.710Z,7.35
2022-08-16T18:08:48.918Z,6.53
2022-08-16T18:11:24.225Z,6.55
2022-08-16T18:13:55.816Z,6.68
2022-08-16T18:16:24.556Z,6.65
2022-08-16T18:18:53.920Z,7.55
2022-08-16T18:21:40.792Z,6.45
2022-08-16T18:24:09.813Z,6.47
2022-08-16T18:26:37.838Z,6.85
2022-08-16T18:29:06.708Z,7.15
2022-08-16T18:31:34.978Z,6.68
2022-08-16T18:34:11.841Z,7.22
2022-08-16T18:36:42.212Z,7.95
2022-08-16T18:39:10.456Z,7.80
2022-08-16T18:41:38.526Z,8.40
2022-08-16T18:44:25.047Z,8.32
2022-08-16T18:46:55.917Z,8.30
2022-08-16T18:49:25.289Z,8.48
2022-08-16T18:51:57.911Z,8.07
2022-08-16T18:54:28.086Z,8.13
2022-08-16T18:56:58.326Z,8.18
2022-08-16T18:59:28.321Z,8.13
2022-08-16T19:02:00.200Z,8.20
2022-08-16T19:04:47.914Z,8.27
2022-08-16T19:07:29.580Z,7.97
2022-08-16T19:09:59.959Z,8.23
2022-08-16T19:12:38.438Z,8.15
2022-08-16T19:15:13.382Z,8.32
2022-08-16T19:17:42.759Z,8.18
2022-08-16T19:20:14.082Z,8.85
2022-08-16T19:23:04.500Z,8.55
2022-08-16T19:25:46.872Z,8.00
2022-08-16T19:28:45.933Z,8.57
2022-08-16T19:31:10.806Z,8.10
2022-08-16T19:33:39.640Z,8.18
2022-08-16T19:36:17.015Z,8.50
2022-08-16T19:38:57.389Z,8.95
2022-08-16T19:41:32.545Z,9.18
2022-08-16T19:44:00.409Z,9.27
2022-08-16T19:46:28.379Z,8.80
2022-08-16T19:48:56.480Z,9.10
2022-08-16T19:51:25.837Z,9.20
2022-08-16T19:53:53.889Z,8.32
2022-08-16T19:56:23.775Z,9.38
2022-08-16T19:59:17.539Z,9.23
2022-08-16T20:01:42.599Z,9.55
2022-08-16T20:04:12.288Z,8.70
2022-08-16T20:06:42.271Z,9.18
2022-08-16T20:09:14.960Z,8.23
2022-08-16T20:11:45.346Z,9.23
2022-08-16T20:14:24.491Z,9.18
2022-08-16T20:16:56.517Z,9.02
2022-08-16T20:19:24.940Z,8.88
2022-08-16T20:21:56.318Z,8.93
2022-08-16T20:24:40.177Z,8.75
2022-08-16T20:27:09.953Z,8.73
2022-08-16T20:29:40.522Z,8.85
2022-08-16T20:32:11.369Z,8.93
2022-08-16T20:34:41.445Z,9.05
2022-08-16T20:37:12.603Z,8.55
2022-08-16T20:39:44.157Z,8.90
2022-08-16T20:42:13.151Z,8.52
2022-08-16T20:44:41.342Z,9.50
2022-08-16T20:47:09.944Z,8.98
2022-08-16T20:49:38.510Z,8.52
2022-08-16T20:52:09.095Z,8.65
2022-08-16T20:54:38.653Z,9.60
2022-08-16T20:57:07.379Z,9.27
2022-08-16T20:59:35.497Z,8.82
2022-08-16T21:02:03.676Z,9.15
2022-08-16T21:04:31.621Z,9.82
2022-08-16T21:06:59.707Z,9.82
2022-08-16T21:09:32.726Z,9.95
2022-08-16T21:12:04.764Z,9.85
2022-08-16T21:14:34.872Z,10.30
2022-08-16T21:17:03.590Z,10.30
2022-08-16T21:19:32.157Z,11.00
2022-08-16T21:22:10.734Z,10.30
2022-08-16T21:24:38.826Z,10.15
2022-08-16T21:27:08.169Z,10.63
2022-08-16T21:29:43.142Z,11.05
2022-08-16T21:32:14.533Z,10.98
2022-08-16T21:34:43.846Z,9.55
2022-08-16T21:37:15.463Z,10.70
2022-08-16T21:42:16.703Z,10.32
2022-08-16T21:44:45.768Z,10.30
2022-08-16T21:47:13.869Z,9.90
2022-08-16T21:49:42.000Z,9.55
2022-08-16T21:52:26.264Z,10.20
2022-08-16T21:54:56.930Z,9.20
2022-08-16T21:57:26.911Z,10.10
2022-08-16T22:00:05.773Z,10.15
2022-08-16T22:02:41.629Z,10.30
2022-08-16T22:05:09.977Z,9.90
2022-08-16T22:07:37.963Z,9.98
2022-08-16T22:11:05.915Z,10.27
2022-08-16T22:12:56.495Z,10.05
2022-08-16T22:15:25.889Z,10.73
2022-08-16T22:17:55.381Z,10.07
2022-08-16T22:20:24.605Z,10.38
2022-08-16T22:22:52.685Z,10.07
2022-08-16T22:25:20.635Z,9.88
2022-08-16T22:27:48.943Z,10.27
2022-08-16T22:30:18.365Z,10.27
2022-08-16T22:32:46.802Z,11.15
2022-08-16T22:35:14.956Z,10.23
2022-08-16T22:38:43.940Z,10.52
2022-08-16T22:40:30.959Z,9.80
2022-08-16T22:42:58.875Z,10.07
2022-08-16T22:45:28.191Z,10.50
2022-08-16T22:47:56.867Z,10.63
2022-08-16T22:50:24.890Z,9.95
2022-08-16T22:52:56.464Z,9.75
2022-08-16T22:55:26.735Z,9.63
2022-08-16T22:57:55.374Z,10.38
2022-08-16T23:00:27.493Z,10.10
2022-08-16T23:02:59.761Z,9.82
2022-08-16T23:05:30.657Z,10.30
2022-08-16T23:07:58.649Z,10.32
2022-08-16T23:10:26.755Z,10.35
2022-08-16T23:12:57.176Z,10.50
2022-08-16T23:15:27.037Z,9.15
2022-08-16T23:17:58.272Z,9.55
2022-08-16T23:20:29.216Z,9.45
2022-08-16T23:23:21.013Z,10.23
2022-08-16T23:25:52.085Z,9.85
2022-08-16T23:28:26.183Z,9.57
2022-08-16T23:30:54.867Z,9.90
2022-08-16T23:33:24.889Z,9.70
2022-08-16T23:35:55.047Z,9.63
2022-08-16T23:38:37.609Z,9.35
2022-08-16T23:41:09.491Z,10.13
2022-08-16T23:43:43.141Z,10.15
2022-08-16T23:46:15.149Z,9.73
2022-08-16T23:49:58.989Z,8.98
2022-08-16T23:51:33.425Z,9.52
2022-08-16T23:54:01.335Z,9.32
2022-08-16T23:56:30.094Z,9.55
2022-08-16T23:59:09.044Z,10.07
